createdAt,value
2022-08-29T00:01:06.878Z,15.20
2022-08-29T00:03:35.238Z,15.30
2022-08-29T00:06:03.943Z,15.20
2022-08-29T00:08:32.029Z,15.20
2022-08-29T00:11:00.286Z,15.10
2022-08-29T00:13:29.947Z,15.10
2022-08-29T00:15:58.006Z,15.10
2022-08-29T00:18:26.884Z,15.00
2022-08-29T00:20:55.194Z,15.00
2022-08-29T00:23:23.288Z,14.90
2022-08-29T00:25:53.037Z,14.90
2022-08-29T00:28:21.312Z,14.80
2022-08-29T00:30:50.977Z,14.80
2022-08-29T00:33:19.575Z,14.80
2022-08-29T00:35:48.043Z,14.80
2022-08-29T00:38:19.236Z,14.70
2022-08-29T00:40:51.466Z,14.80
2022-08-29T00:43:22.820Z,14.70
2022-08-29T00:45:59.220Z,14.70
2022-08-29T00:48:27.571Z,14.70
2022-08-29T00:50:59.815Z,14.70
2022-08-29T00:53:30.969Z,14.60
2022-08-29T00:56:00.163Z,14.50
2022-08-29T00:58:33.998Z,14.50
2022-08-29T01:01:04.082Z,14.40
2022-08-29T01:03:33.658Z,14.50
2022-08-29T01:06:02.999Z,14.50
2022-08-29T01:08:31.733Z,14.50
2022-08-29T01:11:18.711Z,14.40
2022-08-29T01:13:49.255Z,14.40
2022-08-29T01:16:20.603Z,14.30
2022-08-29T01:18:51.679Z,14.20
2022-08-29T01:21:25.425Z,14.00
2022-08-29T01:24:00.827Z,14.00
2022-08-29T01:26:31.762Z,14.00
2022-08-29T01:29:00.257Z,13.80
2022-08-29T01:31:55.731Z,13.70
2022-08-29T01:34:24.993Z,13.70
2022-08-29T01:36:55.569Z,13.70
2022-08-29T01:39:27.125Z,13.70
2022-08-29T01:41:58.049Z,13.70
2022-08-29T01:44:26.896Z,13.70
2022-08-29T01:47:01.862Z,13.60
2022-08-29T01:49:32.288Z,13.60
2022-08-29T01:52:00.423Z,13.50
2022-08-29T01:54:30.378Z,13.50
2022-08-29T01:57:00.709Z,13.50
2022-08-29T01:59:31.768Z,13.50
2022-08-29T02:02:03.878Z,13.50
2022-08-29T02:04:32.596Z,13.60
2022-08-29T02:07:03.000Z,13.50
2022-08-29T02:09:31.751Z,13.50
2022-08-29T02:12:06.810Z,13.60
2022-08-29T02:14:35.607Z,13.60
2022-08-29T02:17:04.170Z,13.50
2022-08-29T02:19:33.625Z,13.40
2022-08-29T02:22:02.602Z,13.40
2022-08-29T02:24:31.562Z,13.20
2022-08-29T02:27:01.262Z,13.10
2022-08-29T02:29:36.973Z,13.10
2022-08-29T02:32:06.955Z,12.90
2022-08-29T02:34:35.204Z,12.90
2022-08-29T02:37:03.555Z,12.80
2022-08-29T02:39:31.891Z,12.80
2022-08-29T02:42:01.364Z,12.80
2022-08-29T02:44:29.704Z,12.80
2022-08-29T02:46:57.924Z,12.80
2022-08-29T02:49:26.106Z,12.70
2022-08-29T02:51:54.214Z,12.70
2022-08-29T02:54:23.594Z,12.70
2022-08-29T02:56:52.084Z,12.80
2022-08-29T02:59:21.557Z,12.70
2022-08-29T03:01:49.658Z,12.70
2022-08-29T03:04:17.772Z,12.70
2022-08-29T03:06:46.962Z,12.80
2022-08-29T03:09:15.215Z,12.90
2022-08-29T03:11:43.331Z,12.80
2022-08-29T03:14:11.512Z,12.70
2022-08-29T03:16:40.912Z,12.60
2022-08-29T03:19:08.952Z,12.60
2022-08-29T03:21:37.051Z,12.70
2022-08-29T03:24:05.351Z,12.80
2022-08-29T03:26:33.555Z,12.90
2022-08-29T03:29:01.637Z,12.90
2022-08-29T03:31:29.936Z,12.90
2022-08-29T03:33:59.774Z,13.00
2022-08-29T03:36:28.068Z,13.00
2022-08-29T03:38:56.411Z,13.00
2022-08-29T03:41:26.872Z,13.00
2022-08-29T03:43:56.369Z,13.10
2022-08-29T03:46:24.596Z,13.20
2022-08-29T03:48:53.285Z,13.10
2022-08-29T03:51:22.958Z,13.10
2022-08-29T03:53:54.426Z,13.00
2022-08-29T03:56:22.927Z,13.00
2022-08-29T03:58:53.318Z,12.90
2022-08-29T04:01:24.694Z,12.80
2022-08-29T04:03:53.384Z,12.90
2022-08-29T04:06:23.611Z,12.90
2022-08-29T04:08:53.276Z,12.80
2022-08-29T04:11:23.915Z,12.90
2022-08-29T04:13:53.003Z,12.90
2022-08-29T04:16:24.058Z,12.90
2022-08-29T04:18:52.372Z,12.90
2022-08-29T04:21:21.885Z,12.90
2022-08-29T04:23:50.848Z,12.90
2022-08-29T04:26:37.607Z,12.90
2022-08-29T04:29:06.540Z,12.80
2022-08-29T04:31:34.976Z,12.80
2022-08-29T04:34:03.227Z,12.80
2022-08-29T04:36:32.730Z,12.70
2022-08-29T04:39:00.821Z,12.70
2022-08-29T04:41:29.047Z,12.70
2022-08-29T04:43:57.168Z,12.80
2022-08-29T04:46:25.767Z,12.80
2022-08-29T04:49:03.270Z,12.80
2022-08-29T04:51:34.369Z,12.70
2022-08-29T04:54:02.573Z,12.70
2022-08-29T04:56:30.755Z,12.80
2022-08-29T04:58:58.970Z,12.90
2022-08-29T05:01:27.490Z,12.90
2022-08-29T05:03:56.490Z,12.90
2022-08-29T05:06:25.052Z,12.90
2022-08-29T05:08:59.055Z,12.90
2022-08-29T05:11:29.741Z,12.90
2022-08-29T05:13:58.918Z,12.90
2022-08-29T05:16:27.647Z,13.00
2022-08-29T05:18:56.279Z,12.90
2022-08-29T05:21:27.219Z,12.80
2022-08-29T05:23:57.509Z,12.70
2022-08-29T05:26:26.603Z,12.70
2022-08-29T05:28:54.708Z,12.90
2022-08-29T05:31:23.552Z,13.10
2022-08-29T05:33:51.916Z,13.10
2022-08-29T05:36:20.244Z,13.30
2022-08-29T05:38:48.889Z,13.40
2022-08-29T05:41:18.512Z,13.40
2022-08-29T05:43:47.251Z,13.60
2022-08-29T05:46:15.341Z,13.70
2022-08-29T05:48:49.160Z,13.80
2022-08-29T05:51:19.948Z,13.90
2022-08-29T05:53:49.353Z,14.00
2022-08-29T05:56:26.977Z,14.20
2022-08-29T05:58:55.236Z,14.30
2022-08-29T06:01:25.898Z,14.40
2022-08-29T06:03:54.503Z,14.50
2022-08-29T06:06:23.824Z,14.70
2022-08-29T06:08:52.892Z,14.70
2022-08-29T06:11:25.671Z,14.80
2022-08-29T06:13:53.918Z,14.80
2022-08-29T06:16:23.943Z,14.80
2022-08-29T06:18:52.768Z,14.70
2022-08-29T06:21:20.920Z,14.80
2022-08-29T06:23:49.562Z,14.90
2022-08-29T06:26:19.666Z,15.10
2022-08-29T06:28:49.294Z,15.10
2022-08-29T06:31:20.816Z,15.20
2022-08-29T06:33:52.095Z,15.30
2022-08-29T06:36:20.814Z,15.40
2022-08-29T06:38:48.908Z,15.40
2022-08-29T06:41:19.019Z,15.60
2022-08-29T06:43:48.555Z,15.70
2022-08-29T06:46:22.819Z,15.80
2022-08-29T06:48:51.464Z,15.90
2022-08-29T06:51:19.923Z,16.00
2022-08-29T06:53:48.240Z,16.10
2022-08-29T06:56:17.667Z,16.20
2022-08-29T06:58:47.954Z,16.30
2022-08-29T07:01:18.771Z,16.40
2022-08-29T07:03:47.010Z,16.50
2022-08-29T07:06:17.892Z,16.40
2022-08-29T07:08:55.033Z,16.50
2022-08-29T07:11:23.725Z,16.40
2022-08-29T07:13:53.295Z,16.70
2022-08-29T07:16:23.047Z,16.90
2022-08-29T07:18:51.309Z,17.10
2022-08-29T07:21:23.076Z,17.20
2022-08-29T07:23:52.179Z,17.30
2022-08-29T07:26:22.975Z,17.50
2022-08-29T07:28:54.945Z,17.60
2022-08-29T07:31:24.134Z,17.70
2022-08-29T07:34:01.775Z,17.70
2022-08-29T07:36:31.359Z,17.90
2022-08-29T07:38:59.555Z,18.10
2022-08-29T07:41:28.573Z,18.20
2022-08-29T07:43:59.055Z,18.30
2022-08-29T07:46:27.367Z,18.20
2022-08-29T07:48:55.669Z,18.30
2022-08-29T07:51:25.198Z,18.10
2022-08-29T07:53:54.091Z,18.30
2022-08-29T07:56:25.125Z,18.30
2022-08-29T07:58:53.837Z,18.20
2022-08-29T08:01:23.867Z,18.30
2022-08-29T08:03:52.855Z,18.40
2022-08-29T08:06:21.882Z,18.50
2022-08-29T08:08:51.141Z,18.40
2022-08-29T08:11:21.291Z,18.50
2022-08-29T08:13:50.067Z,18.60
2022-08-29T08:16:21.535Z,18.80
2022-08-29T08:18:51.233Z,18.80
2022-08-29T08:21:19.398Z,18.90
2022-08-29T08:23:47.487Z,19.00
2022-08-29T08:26:16.177Z,18.90
2022-08-29T08:28:45.050Z,19.00
2022-08-29T08:31:15.361Z,19.10
2022-08-29T08:33:44.514Z,19.20
2022-08-29T08:36:19.782Z,19.20
2022-08-29T08:38:48.355Z,19.30
2022-08-29T08:41:32.349Z,19.20
2022-08-29T08:44:05.342Z,19.30
2022-08-29T08:46:38.458Z,19.50
2022-08-29T08:49:11.407Z,19.50
2022-08-29T08:51:46.151Z,19.60
2022-08-29T08:54:21.327Z,19.50
2022-08-29T08:59:45.338Z,19.40
2022-08-29T09:02:28.046Z,19.30
2022-08-29T09:05:04.166Z,19.30
2022-08-29T09:08:06.455Z,19.40
2022-08-29T09:10:48.692Z,19.30
2022-08-29T09:13:28.956Z,19.40
2022-08-29T09:16:02.854Z,19.60
2022-08-29T09:18:36.112Z,19.80
2022-08-29T09:21:30.001Z,20.00
2022-08-29T09:24:01.432Z,19.80
2022-08-29T09:26:29.716Z,20.00
2022-08-29T09:28:59.045Z,20.10
2022-08-29T09:31:29.488Z,19.80
2022-08-29T09:33:59.925Z,20.00
2022-08-29T09:36:38.235Z,20.30
2022-08-29T09:39:23.453Z,21.10
2022-08-29T09:41:55.905Z,21.20
2022-08-29T09:44:27.824Z,21.30
2022-08-29T09:47:08.900Z,21.30
2022-08-29T09:49:38.456Z,21.30
2022-08-29T09:52:14.162Z,21.00
2022-08-29T09:54:44.876Z,21.20
2022-08-29T09:57:23.519Z,21.10
2022-08-29T10:00:10.423Z,20.70
2022-08-29T10:02:46.930Z,21.20
2022-08-29T10:05:47.699Z,21.60
2022-08-29T10:08:30.578Z,22.20
2022-08-29T10:11:02.948Z,22.90
2022-08-29T10:13:38.798Z,23.80
2022-08-29T10:16:17.460Z,24.90
2022-08-29T10:18:52.151Z,25.90
2022-08-29T10:21:31.372Z,25.50
2022-08-29T10:24:19.631Z,25.70
2022-08-29T10:26:56.713Z,25.80
2022-08-29T10:29:44.204Z,24.30
2022-08-29T10:32:20.306Z,24.00
2022-08-29T10:35:04.567Z,23.90
2022-08-29T10:37:43.632Z,24.70
2022-08-29T10:40:18.682Z,25.00
2022-08-29T10:42:50.111Z,26.30
2022-08-29T10:45:29.508Z,27.10
2022-08-29T10:48:06.974Z,27.80
2022-08-29T10:50:44.899Z,28.40
2022-08-29T10:53:19.967Z,27.30
2022-08-29T10:55:54.455Z,27.40
2022-08-29T10:58:44.002Z,27.10
2022-08-29T11:01:17.379Z,27.10
2022-08-29T11:03:52.849Z,27.60
2022-08-29T11:06:26.139Z,27.70
2022-08-29T11:09:00.475Z,27.50
2022-08-29T11:11:31.913Z,28.00
2022-08-29T11:14:06.325Z,27.40
2022-08-29T11:16:39.656Z,26.50
2022-08-29T11:19:13.622Z,26.60
2022-08-29T11:21:45.312Z,27.30
2022-08-29T11:24:16.006Z,27.90
2022-08-29T11:26:55.018Z,27.70
2022-08-29T11:29:34.253Z,27.80
2022-08-29T11:32:07.640Z,28.40
2022-08-29T11:34:52.734Z,29.20
2022-08-29T11:37:50.340Z,28.90
2022-08-29T11:43:29.602Z,28.30
2022-08-29T11:46:02.132Z,28.30
2022-08-29T11:48:37.477Z,28.50
2022-08-29T11:51:39.904Z,28.90
2022-08-29T11:54:49.768Z,28.60
2022-08-29T11:57:46.170Z,29.60
2022-08-29T12:00:51.196Z,29.00
2022-08-29T12:03:50.556Z,29.40
2022-08-29T12:06:39.698Z,30.10
2022-08-29T12:09:26.410Z,29.40
2022-08-29T12:12:36.554Z,29.10
2022-08-29T12:15:42.063Z,29.30
2022-08-29T12:18:36.594Z,29.90
2022-08-29T12:21:35.569Z,29.80
2022-08-29T12:24:04.294Z,29.80
2022-08-29T12:26:41.683Z,29.30
2022-08-29T12:29:19.514Z,29.00
2022-08-29T12:32:23.407Z,28.30
2022-08-29T12:35:11.717Z,28.40
2022-08-29T12:37:56.351Z,28.20
2022-08-29T12:40:52.795Z,28.60
2022-08-29T12:43:33.770Z,28.50
2022-08-29T12:46:04.499Z,28.20
2022-08-29T12:48:38.590Z,29.00
2022-08-29T12:51:09.320Z,28.70
2022-08-29T12:53:39.431Z,28.80
2022-08-29T12:56:18.094Z,28.10
2022-08-29T12:58:54.404Z,27.30
2022-08-29T13:01:28.891Z,27.80
2022-08-29T13:03:59.994Z,28.40
2022-08-29T13:06:29.958Z,27.50
2022-08-29T13:08:58.166Z,27.80
2022-08-29T13:11:28.407Z,28.00
2022-08-29T13:14:08.290Z,28.00
2022-08-29T13:16:36.637Z,27.90
2022-08-29T13:19:11.290Z,27.60
2022-08-29T13:21:41.225Z,27.00
2022-08-29T13:24:14.290Z,26.90
2022-08-29T13:27:04.769Z,26.80
2022-08-29T13:29:37.788Z,26.90
2022-08-29T13:32:24.431Z,26.90
2022-08-29T13:35:19.087Z,26.50
2022-08-29T13:38:17.477Z,26.60
2022-08-29T13:40:47.679Z,26.70
2022-08-29T13:43:35.839Z,26.40
2022-08-29T13:46:15.457Z,26.30
2022-08-29T13:48:43.942Z,25.90
2022-08-29T13:51:12.936Z,26.20
2022-08-29T13:53:45.550Z,26.10
2022-08-29T13:56:23.257Z,25.90
2022-08-29T13:58:51.580Z,25.80
2022-08-29T14:01:30.366Z,25.20
2022-08-29T14:04:03.598Z,25.20
2022-08-29T14:06:38.936Z,25.40
2022-08-29T14:09:09.291Z,25.60
2022-08-29T14:11:37.380Z,25.80
2022-08-29T14:14:05.485Z,25.80
2022-08-29T14:16:33.585Z,25.70
2022-08-29T14:19:01.846Z,25.80
2022-08-29T14:21:30.179Z,25.70
2022-08-29T14:23:58.545Z,25.40
2022-08-29T14:26:28.052Z,25.20
2022-08-29T14:28:56.278Z,25.20
2022-08-29T14:31:24.378Z,25.50
2022-08-29T14:33:52.444Z,25.60
2022-08-29T14:36:20.579Z,25.80
2022-08-29T14:38:55.502Z,25.60
2022-08-29T14:41:23.649Z,25.50
2022-08-29T14:43:54.061Z,25.70
2022-08-29T14:46:22.313Z,25.70
2022-08-29T14:48:50.468Z,25.80
2022-08-29T14:51:18.567Z,25.50
2022-08-29T14:53:51.655Z,25.60
2022-08-29T14:56:47.145Z,25.90
2022-08-29T14:59:15.757Z,25.50
2022-08-29T15:01:44.216Z,25.50
2022-08-29T15:04:12.477Z,25.50
2022-08-29T15:06:42.099Z,25.50
2022-08-29T15:09:10.214Z,25.20
2022-08-29T15:11:38.311Z,25.10
2022-08-29T15:14:09.015Z,25.20
2022-08-29T15:16:38.654Z,25.20
2022-08-29T15:21:54.919Z,25.30
2022-08-29T15:24:25.394Z,25.40
2022-08-29T15:26:58.207Z,25.40
2022-08-29T15:29:26.468Z,25.40
2022-08-29T15:31:57.365Z,25.20
2022-08-29T15:34:25.757Z,25.40
2022-08-29T15:36:54.608Z,25.40
2022-08-29T15:39:23.844Z,25.30
2022-08-29T15:41:52.631Z,25.20
2022-08-29T15:44:21.220Z,25.10
2022-08-29T15:46:51.373Z,24.90
2022-08-29T15:49:23.386Z,24.90
2022-08-29T15:51:53.244Z,24.70
2022-08-29T15:54:21.889Z,24.70
2022-08-29T15:56:50.433Z,24.70
2022-08-29T15:59:30.964Z,24.70
2022-08-29T16:02:10.270Z,24.70
2022-08-29T16:04:43.681Z,24.70
2022-08-29T16:07:13.477Z,24.80
2022-08-29T16:09:42.423Z,24.70
2022-08-29T16:12:11.533Z,24.70
2022-08-29T16:14:59.131Z,24.90
2022-08-29T16:17:29.721Z,24.80
2022-08-29T16:20:00.363Z,24.90
2022-08-29T16:22:28.770Z,24.90
2022-08-29T16:24:57.048Z,24.70
2022-08-29T16:27:25.159Z,24.60
2022-08-29T16:29:54.114Z,24.80
2022-08-29T16:32:22.227Z,24.60
2022-08-29T16:34:51.195Z,24.50
2022-08-29T16:37:20.744Z,24.60
2022-08-29T16:39:48.819Z,24.60
2022-08-29T16:42:17.335Z,24.60
2022-08-29T16:44:45.676Z,24.50
2022-08-29T16:47:13.974Z,24.30
2022-08-29T16:49:42.181Z,24.20
2022-08-29T16:52:10.365Z,24.10
2022-08-29T16:54:39.962Z,24.10
2022-08-29T16:57:08.040Z,24.00
2022-08-29T16:59:37.240Z,24.00
2022-08-29T17:02:06.098Z,24.00
2022-08-29T17:04:34.558Z,23.90
2022-08-29T17:07:02.979Z,23.80
2022-08-29T17:09:30.197Z,23.70
2022-08-29T17:12:02.037Z,23.70
2022-08-29T17:14:29.386Z,23.60
2022-08-29T17:16:57.510Z,23.50
2022-08-29T17:19:25.878Z,23.50
2022-08-29T17:21:54.143Z,23.40
2022-08-29T17:24:22.334Z,23.40
2022-08-29T17:26:50.690Z,23.30
2022-08-29T17:29:20.140Z,23.30
2022-08-29T17:31:48.214Z,23.30
2022-08-29T17:34:16.534Z,23.30
2022-08-29T17:36:44.800Z,23.30
2022-08-29T17:39:13.335Z,23.20
2022-08-29T17:41:43.268Z,23.20
2022-08-29T17:44:13.423Z,23.10
2022-08-29T17:46:43.236Z,23.10
2022-08-29T17:49:11.394Z,23.00
2022-08-29T17:51:40.579Z,23.00
2022-08-29T17:54:12.278Z,22.90
2022-08-29T17:56:44.687Z,22.80
2022-08-29T17:59:13.432Z,22.80
2022-08-29T18:01:43.055Z,22.70
2022-08-29T18:04:11.369Z,22.70
2022-08-29T18:06:40.403Z,22.60
2022-08-29T18:09:09.651Z,22.50
2022-08-29T18:11:39.592Z,22.50
2022-08-29T18:14:08.467Z,22.40
2022-08-29T18:16:36.839Z,22.40
2022-08-29T18:19:09.350Z,22.30
2022-08-29T18:21:37.579Z,22.20
2022-08-29T18:24:06.526Z,22.20
2022-08-29T18:26:35.104Z,22.10
2022-08-29T18:29:03.442Z,22.00
2022-08-29T18:31:31.693Z,21.90
2022-08-29T18:34:01.294Z,21.80
2022-08-29T18:36:31.921Z,21.60
2022-08-29T18:39:00.215Z,21.50
2022-08-29T18:41:28.388Z,21.50
2022-08-29T18:50:00.301Z,21.20
2022-08-29T18:52:29.859Z,21.10
2022-08-29T18:54:58.318Z,21.00
2022-08-29T18:57:26.531Z,21.00
2022-08-29T18:59:54.828Z,21.00
2022-08-29T19:02:23.144Z,21.00
2022-08-29T19:04:52.041Z,21.00
2022-08-29T19:07:24.152Z,21.10
2022-08-29T19:09:53.980Z,21.10
2022-08-29T19:12:23.176Z,21.10
2022-08-29T19:14:52.514Z,21.10
2022-08-29T19:17:20.626Z,21.00
2022-08-29T19:20:10.101Z,20.90
2022-08-29T19:22:39.310Z,20.90
2022-08-29T19:25:10.206Z,20.90
2022-08-29T19:27:45.887Z,20.80
2022-08-29T19:30:16.110Z,20.70
2022-08-29T19:32:44.328Z,20.60
2022-08-29T19:35:13.527Z,20.60
2022-08-29T19:37:43.648Z,20.50
2022-08-29T19:40:16.662Z,20.40
2022-08-29T19:42:45.941Z,20.40
2022-08-29T19:45:17.416Z,20.30
2022-08-29T19:47:45.715Z,20.20
2022-08-29T19:50:16.377Z,20.10
2022-08-29T19:52:44.872Z,20.10
2022-08-29T19:55:17.572Z,20.00
2022-08-29T19:57:47.523Z,20.00
2022-08-29T20:00:17.912Z,20.00
2022-08-29T20:02:46.862Z,19.90
2022-08-29T20:05:15.462Z,19.90
2022-08-29T20:07:45.055Z,19.90
2022-08-29T20:10:21.357Z,19.90
2022-08-29T20:12:51.614Z,19.90
2022-08-29T20:15:20.960Z,19.90
2022-08-29T20:17:49.886Z,19.90
2022-08-29T20:20:22.420Z,19.90
2022-08-29T20:22:51.409Z,19.90
2022-08-29T20:25:21.905Z,19.80
2022-08-29T20:27:50.134Z,19.80
2022-08-29T20:30:22.859Z,19.80
2022-08-29T20:32:52.057Z,19.80
2022-08-29T20:35:35.190Z,19.80
2022-08-29T20:38:03.588Z,19.70
2022-08-29T20:40:33.829Z,19.70
2022-08-29T20:43:02.371Z,19.70
2022-08-29T20:45:30.480Z,19.70
2022-08-29T20:47:58.940Z,19.80
2022-08-29T20:50:27.064Z,19.70
2022-08-29T20:52:55.201Z,19.80
2022-08-29T20:55:24.603Z,19.80
2022-08-29T20:57:54.087Z,19.70
2022-08-29T21:00:24.588Z,19.70
2022-08-29T21:03:10.777Z,19.70
2022-08-29T21:05:42.653Z,19.60
2022-08-29T21:08:12.467Z,19.60
2022-08-29T21:10:40.945Z,19.50
2022-08-29T21:13:10.865Z,19.40
2022-08-29T21:15:40.240Z,19.40
2022-08-29T21:18:10.367Z,19.40
2022-08-29T21:20:40.920Z,19.30
2022-08-29T21:23:21.813Z,19.30
2022-08-29T21:25:54.252Z,19.30
2022-08-29T21:28:24.984Z,19.30
2022-08-29T21:30:53.595Z,19.20
2022-08-29T21:33:22.675Z,19.20
2022-08-29T21:35:50.975Z,19.20
2022-08-29T21:38:19.540Z,19.10
2022-08-29T21:40:50.779Z,19.10
2022-08-29T21:43:20.743Z,19.00
2022-08-29T21:45:50.296Z,19.00
2022-08-29T21:48:18.461Z,18.90
2022-08-29T21:50:46.550Z,18.90
2022-08-29T21:53:15.630Z,18.80
2022-08-29T21:55:44.010Z,18.80
2022-08-29T21:58:12.280Z,18.80
2022-08-29T22:00:42.823Z,18.80
2022-08-29T22:03:18.885Z,18.80
2022-08-29T22:05:51.196Z,18.80
2022-08-29T22:08:21.006Z,18.90
2022-08-29T22:10:49.767Z,18.90
2022-08-29T22:13:18.228Z,18.90
2022-08-29T22:16:03.949Z,18.90
2022-08-29T22:18:43.247Z,18.90
2022-08-29T22:21:15.254Z,18.90
2022-08-29T22:23:44.507Z,19.00
2022-08-29T22:26:12.947Z,19.00
2022-08-29T22:28:41.957Z,19.00
2022-08-29T22:31:10.271Z,19.10
2022-08-29T22:33:38.567Z,19.10
2022-08-29T22:36:10.179Z,19.20
2022-08-29T22:38:38.544Z,19.10
2022-08-29T22:41:10.182Z,19.10
2022-08-29T22:43:39.041Z,19.10
2022-08-29T22:46:12.605Z,19.10
2022-08-29T22:48:41.647Z,19.10
2022-08-29T22:51:17.279Z,19.00
2022-08-29T22:54:07.149Z,19.00
2022-08-29T22:56:37.790Z,19.00
2022-08-29T22:59:07.614Z,18.90
2022-08-29T23:01:38.649Z,19.00
2022-08-29T23:04:07.449Z,19.00
2022-08-29T23:06:36.967Z,19.00
2022-08-29T23:09:06.341Z,19.00
2022-08-29T23:11:35.305Z,19.00
2022-08-29T23:14:04.257Z,18.90
2022-08-29T23:16:33.372Z,18.90
2022-08-29T23:19:02.601Z,18.90
2022-08-29T23:21:32.015Z,19.00
2022-08-29T23:24:01.542Z,19.00
2022-08-29T23:26:29.898Z,19.10
2022-08-29T23:28:58.230Z,19.10
2022-08-29T23:31:26.876Z,19.10
2022-08-29T23:33:55.588Z,19.10
2022-08-29T23:36:23.761Z,19.10
2022-08-29T23:38:52.599Z,19.30
2022-08-29T23:41:22.359Z,19.40
2022-08-29T23:43:50.833Z,19.50
2022-08-29T23:46:19.446Z,19.60
2022-08-29T23:48:47.635Z,19.60
2022-08-29T23:51:15.732Z,19.70
2022-08-29T23:53:45.748Z,19.60
2022-08-29T23:56:15.875Z,19.70
2022-08-29T23:58:45.872Z,19.70
